Besiktas Bosphorus — TCOG3 — position and weather

sailwx.info

Track history (hours):
 
Tides and Currents Weather Stations Pressure Air Temp Water Temp Dewpoint Dewpoint Depression Visibility Wind Speed Wind Dir Waves Ship Positions

Besiktas Bosphorus

Last reported at 2015-Jan-30 02:04 UTC. Time now 2015-Jan-31 00:47 UTC.
Position N 37°51' E 024°26'.

Length 274 m; draft 15.8 m.

Type: Ship (hazmat cat A). MMSI: 271000817.

Date/timePositionNaut miles runAvg speedWind from/ knotsBaromVisibWave heightAir tempDewpointWater temp
2015-Jan-30 02:04N 37°51' E 024°26'813.7
2015-Jan-30 01:31N 37°55' E 024°34'12912.9
2015-Jan-29 15:32N 39°51' E 025°46'  
2015-Jan-25 17:11N 40°26' E 026°54'129 3.0
2015-Jan-23 22:20N 41°31' E 029°22'912.1
2015-Jan-23 21:33N 41°31' E 029°34'23412.3
2015-Jan-23 02:29N 43°18' E 034°16'1313.6
2015-Jan-23 01:31N 43°24' E 034°32'2513.0
2015-Jan-22 23:33N 43°36' E 035°02'1312.9
2015-Jan-22 22:33N 43°43' E 035°18'1312.8
2015-Jan-22 21:33N 43°48' E 035°34'1313.0
2015-Jan-22 20:33N 43°54' E 035°50'1312.8
2015-Jan-22 19:33N 44°00' E 036°06'1513.0
2015-Jan-22 18:24N 44°07' E 036°25'1213.1
2015-Jan-22 17:29N 44°12' E 036°39'1313.6
2015-Jan-22 16:33N 44°18' E 036°55'2013.4
2015-Jan-22 15:06N 44°27' E 037°19'712.7
2015-Jan-22 14:33N 44°30' E 037°28'1111.4
2015-Jan-22 13:33N 44°36' E 037°42'1 1.0
2015-Jan-22 12:33N 44°36' E 037°43'0 0.4
2015-Jan-22 11:33N 44°37' E 037°43'0 0.2
2015-Jan-22 10:33N 44°37' E 037°43'1 1.0
2015-Jan-22 09:33N 44°37' E 037°42'2 2.5
2015-Jan-22 08:33N 44°37' E 037°39'1 0.8
2015-Jan-22 07:32N 44°38' E 037°38'0 0.0
2015-Jan-22 06:26N 44°38' E 037°38'0 0.0
2015-Jan-22 05:32N 44°38' E 037°38'0 0.0
2015-Jan-22 04:29N 44°38' E 037°38'0 0.0
2015-Jan-22 02:17N 44°38' E 037°38'0 0.0
2015-Jan-22 01:26N 44°38' E 037°38'0 0.0
2015-Jan-22 00:23N 44°38' E 037°38'0 0.0
2015-Jan-21 23:29N 44°38' E 037°38'0 0.0
2015-Jan-21 22:29N 44°38' E 037°38'0 0.0
2015-Jan-21 20:29N 44°38' E 037°38'0 0.2
2015-Jan-21 19:32N 44°38' E 037°38'0 0.2
2015-Jan-21 18:26N 44°38' E 037°38'0 0.1
2015-Jan-21 17:32N 44°38' E 037°38'0 0.1
2015-Jan-21 16:32N 44°38' E 037°38'0 0.1
2015-Jan-21 14:14N 44°38' E 037°38'0 0.1
2015-Jan-21 13:32N 44°38' E 037°38'1 0.9
2015-Jan-21 12:34N 44°39' E 037°38'4 3.8
2015-Jan-21 11:33N 44°36' E 037°41'1 1.0
2015-Jan-21 10:31N 44°35' E 037°40'9 9.6
2015-Jan-21 09:33N 44°35' E 037°53'0 0.3
2015-Jan-21 08:32N 44°36' E 037°53'0 0.0
2015-Jan-21 07:32N 44°36' E 037°53'0 0.0
2015-Jan-21 06:32N 44°36' E 037°53'0 0.0
2015-Jan-21 05:32N 44°36' E 037°53'0 0.0
2015-Jan-21 04:32N 44°36' E 037°53'0 0.0
2015-Jan-21 03:32N 44°36' E 037°53'0 0.0
2015-Jan-21 02:32N 44°36' E 037°53'0 0.0
2015-Jan-21 01:32N 44°36' E 037°53'0 0.0
2015-Jan-21 00:32N 44°36' E 037°53'0 0.0
2015-Jan-20 23:32N 44°36' E 037°53'0 0.0
2015-Jan-20 22:32N 44°36' E 037°53'0 0.0
2015-Jan-20 21:32N 44°36' E 037°53'0 0.0
2015-Jan-20 20:32N 44°36' E 037°53'0 0.0
2015-Jan-20 19:32N 44°36' E 037°53'0 0.0
2015-Jan-20 18:32N 44°36' E 037°53'0 0.0
2015-Jan-20 17:32N 44°36' E 037°53'0 0.0
2015-Jan-20 16:29N 44°36' E 037°53'0 0.0
2015-Jan-20 15:32N 44°36' E 037°53'0 0.1
2015-Jan-20 14:32N 44°36' E 037°53'0 0.1
2015-Jan-20 13:32N 44°36' E 037°53'0 0.0
2015-Jan-20 12:29N 44°36' E 037°53'0 0.0
2015-Jan-20 11:32N 44°36' E 037°53'0 0.0
2015-Jan-20 10:32N 44°36' E 037°53'0 0.0
2015-Jan-20 09:32N 44°36' E 037°53'0 0.0
2015-Jan-20 08:32N 44°36' E 037°53'0 0.0
2015-Jan-20 07:32N 44°36' E 037°53'0 0.0
2015-Jan-20 06:29N 44°36' E 037°53'0 0.0
2015-Jan-20 05:32N 44°36' E 037°53'0 0.0
2015-Jan-20 04:26N 44°36' E 037°53'0 0.0
2015-Jan-20 03:26N 44°36' E 037°53'0 0.0
2015-Jan-20 02:25N 44°36' E 037°53'  
Track history (hours):
 
Tides and Currents Weather Stations Pressure Air Temp Water Temp Dewpoint Dewpoint Depression Visibility Wind Speed Wind Dir Waves Ship Positions

Besiktas Bosphorus

Last reported at 2015-Jan-30 02:04 UTC. Time now 2015-Jan-31 00:47 UTC.
Position N 37°51' E 024°26'.

Length 274 m; draft 15.8 m.

Type: Ship (hazmat cat A). MMSI: 271000817.

Date/timePositionNaut miles runAvg speedWind from/ knotsBaromVisibWave heightAir tempDewpointWater temp
2015-Jan-30 02:04N 37°51' E 024°26'813.7
2015-Jan-30 01:31N 37°55' E 024°34'12912.9
2015-Jan-29 15:32N 39°51' E 025°46'  
2015-Jan-25 17:11N 40°26' E 026°54'129 3.0
2015-Jan-23 22:20N 41°31' E 029°22'912.1
2015-Jan-23 21:33N 41°31' E 029°34'23412.3
2015-Jan-23 02:29N 43°18' E 034°16'1313.6
2015-Jan-23 01:31N 43°24' E 034°32'2513.0
2015-Jan-22 23:33N 43°36' E 035°02'1312.9
2015-Jan-22 22:33N 43°43' E 035°18'1312.8
2015-Jan-22 21:33N 43°48' E 035°34'1313.0
2015-Jan-22 20:33N 43°54' E 035°50'1312.8
2015-Jan-22 19:33N 44°00' E 036°06'1513.0
2015-Jan-22 18:24N 44°07' E 036°25'1213.1
2015-Jan-22 17:29N 44°12' E 036°39'1313.6
2015-Jan-22 16:33N 44°18' E 036°55'2013.4
2015-Jan-22 15:06N 44°27' E 037°19'712.7
2015-Jan-22 14:33N 44°30' E 037°28'1111.4
2015-Jan-22 13:33N 44°36' E 037°42'1 1.0
2015-Jan-22 12:33N 44°36' E 037°43'0 0.4
2015-Jan-22 11:33N 44°37' E 037°43'0 0.2
2015-Jan-22 10:33N 44°37' E 037°43'1 1.0
2015-Jan-22 09:33N 44°37' E 037°42'2 2.5
2015-Jan-22 08:33N 44°37' E 037°39'1 0.8
2015-Jan-22 07:32N 44°38' E 037°38'0 0.0
2015-Jan-22 06:26N 44°38' E 037°38'0 0.0
2015-Jan-22 05:32N 44°38' E 037°38'0 0.0
2015-Jan-22 04:29N 44°38' E 037°38'0 0.0
2015-Jan-22 02:17N 44°38' E 037°38'0 0.0
2015-Jan-22 01:26N 44°38' E 037°38'0 0.0
2015-Jan-22 00:23N 44°38' E 037°38'0 0.0
2015-Jan-21 23:29N 44°38' E 037°38'0 0.0
2015-Jan-21 22:29N 44°38' E 037°38'0 0.0
2015-Jan-21 20:29N 44°38' E 037°38'0 0.2
2015-Jan-21 19:32N 44°38' E 037°38'0 0.2
2015-Jan-21 18:26N 44°38' E 037°38'0 0.1
2015-Jan-21 17:32N 44°38' E 037°38'0 0.1
2015-Jan-21 16:32N 44°38' E 037°38'0 0.1
2015-Jan-21 14:14N 44°38' E 037°38'0 0.1
2015-Jan-21 13:32N 44°38' E 037°38'1 0.9
2015-Jan-21 12:34N 44°39' E 037°38'4 3.8
2015-Jan-21 11:33N 44°36' E 037°41'1 1.0
2015-Jan-21 10:31N 44°35' E 037°40'9 9.6
2015-Jan-21 09:33N 44°35' E 037°53'0 0.3
2015-Jan-21 08:32N 44°36' E 037°53'0 0.0
2015-Jan-21 07:32N 44°36' E 037°53'0 0.0
2015-Jan-21 06:32N 44°36' E 037°53'0 0.0
2015-Jan-21 05:32N 44°36' E 037°53'0 0.0
2015-Jan-21 04:32N 44°36' E 037°53'0 0.0
2015-Jan-21 03:32N 44°36' E 037°53'0 0.0
2015-Jan-21 02:32N 44°36' E 037°53'0 0.0
2015-Jan-21 01:32N 44°36' E 037°53'0 0.0
2015-Jan-21 00:32N 44°36' E 037°53'0 0.0
2015-Jan-20 23:32N 44°36' E 037°53'0 0.0
2015-Jan-20 22:32N 44°36' E 037°53'0 0.0
2015-Jan-20 21:32N 44°36' E 037°53'0 0.0
2015-Jan-20 20:32N 44°36' E 037°53'0 0.0
2015-Jan-20 19:32N 44°36' E 037°53'0 0.0
2015-Jan-20 18:32N 44°36' E 037°53'0 0.0
2015-Jan-20 17:32N 44°36' E 037°53'0 0.0
2015-Jan-20 16:29N 44°36' E 037°53'0 0.0
2015-Jan-20 15:32N 44°36' E 037°53'0 0.1
2015-Jan-20 14:32N 44°36' E 037°53'0 0.1
2015-Jan-20 13:32N 44°36' E 037°53'0 0.0
2015-Jan-20 12:29N 44°36' E 037°53'0 0.0
2015-Jan-20 11:32N 44°36' E 037°53'0 0.0
2015-Jan-20 10:32N 44°36' E 037°53'0 0.0
2015-Jan-20 09:32N 44°36' E 037°53'0 0.0
2015-Jan-20 08:32N 44°36' E 037°53'0 0.0
2015-Jan-20 07:32N 44°36' E 037°53'0 0.0
2015-Jan-20 06:29N 44°36' E 037°53'0 0.0
2015-Jan-20 05:32N 44°36' E 037°53'0 0.0
2015-Jan-20 04:26N 44°36' E 037°53'0 0.0
2015-Jan-20 03:26N 44°36' E 037°53'0 0.0
2015-Jan-20 02:25N 44°36' E 037°53'  

Dump ship's entire track history